Time;durP1;ratioP1;P1;durP2;ratioP2;P2;SDS_P1;SDS_P2;PMS_P1;PMS_P2;Temp;Humidity;BMP_temperature;BMP_pressure;BME280_temperature;BME280_humidity;BME280_pressure;Samples;Min_cycle;Max_cycle;Signal;HPM_P1;HPM_P2
2022/12/10 00:01:31;;;;;;;40.38;16.65;;;-1.30;99.90;;;;;;5034795;28;20045;-46
2022/12/10 00:03:58;;;;;;;37.17;16.88;;;-1.30;99.90;;;;;;5034920;28;20100;-46
2022/12/10 00:06:26;;;;;;;41.60;16.98;;;-1.40;99.90;;;;;;5034946;28;20053;-45
2022/12/10 00:08:53;;;;;;;33.38;14.35;;;-1.30;99.90;;;;;;5035119;28;20128;-45
2022/12/10 00:11:20;;;;;;;35.13;16.50;;;-1.10;99.90;;;;;;5016997;28;20128;-46
2022/12/10 00:13:46;;;;;;;36.33;15.38;;;-1.30;99.90;;;;;;5034742;28;20095;-45
2022/12/10 00:16:14;;;;;;;42.33;17.92;;;-1.30;99.90;;;;;;5034731;28;20453;-44
2022/12/10 00:18:40;;;;;;;38.38;16.85;;;-1.50;99.90;;;;;;5034627;28;20125;-45
2022/12/10 00:21:12;;;;;;;46.67;21.95;;;-1.30;99.90;;;;;;5034194;28;20112;-44
2022/12/10 00:23:38;;;;;;;42.78;20.35;;;-1.50;99.90;;;;;;5034696;28;20048;-46
2022/12/10 00:26:12;;;;;;;41.20;21.33;;;-1.50;99.90;;;;;;5034411;28;20486;-46
2022/12/10 00:28:39;;;;;;;50.60;23.98;;;-1.50;99.90;;;;;;5016998;28;20088;-45
2022/12/10 00:31:07;;;;;;;55.83;27.13;;;-1.60;99.90;;;;;;5034358;28;20755;-48
2022/12/10 00:33:34;;;;;;;51.53;25.58;;;-1.40;99.90;;;;;;5034545;28;20095;-46
2022/12/10 00:36:12;;;;;;;55.28;26.10;;;-1.50;99.90;;;;;;5034153;28;20107;-48
2022/12/10 00:38:39;;;;;;;54.25;26.02;;;-1.50;99.90;;;;;;5034407;28;20440;-45
2022/12/10 00:41:06;;;;;;;55.42;24.83;;;-1.60;99.90;;;;;;5016572;28;20068;-46
2022/12/10 00:43:32;;;;;;;55.88;25.60;;;-1.50;99.90;;;;;;5034427;28;20401;-49
2022/12/10 00:45:57;;;;;;;53.85;25.55;;;-1.40;99.90;;;;;;5034568;28;20079;-47
2022/12/10 00:48:24;;;;;;;55.55;27.48;;;-1.60;99.90;;;;;;5034436;28;20065;-47
2022/12/10 00:51:01;;;;;;;54.08;25.83;;;-1.60;99.90;;;;;;5034076;28;20517;-45
2022/12/10 00:53:29;;;;;;;53.55;24.80;;;-1.50;99.90;;;;;;5034448;28;20041;-46
2022/12/10 00:55:55;;;;;;;58.67;25.60;;;-1.50;99.90;;;;;;5039472;28;20065;-46
2022/12/10 00:58:21;;;;;;;56.50;26.13;;;-1.60;99.90;;;;;;5054179;28;20464;-46
2022/12/10 01:00:48;;;;;;;55.33;26.35;;;-1.70;99.90;;;;;;5053820;28;20500;-45
2022/12/10 01:03:14;;;;;;;55.88;26.95;;;-1.70;99.90;;;;;;5054036;28;20061;-44
2022/12/10 01:05:40;;;;;;;56.90;27.38;;;-1.50;99.90;;;;;;5053883;28;20394;-45
2022/12/10 01:08:05;;;;;;;63.53;27.42;;;-1.80;99.90;;;;;;5054007;28;20045;-45
2022/12/10 01:10:31;;;;;;;57.60;26.60;;;-1.60;99.90;;;;;;5053676;28;20667;-44
2022/12/10 01:12:57;;;;;;;60.95;28.27;;;-1.80;99.90;;;;;;5053540;28;20052;-45
2022/12/10 01:15:22;;;;;;;55.65;26.95;;;-1.70;99.90;;;;;;5053918;28;20028;-44
2022/12/10 01:17:48;;;;;;;63.75;29.13;;;-1.60;99.90;;;;;;5054282;28;20029;-45
2022/12/10 01:20:14;;;;;;;60.13;26.55;;;-1.70;99.90;;;;;;5053707;28;20482;-47
2022/12/10 01:22:39;;;;;;;62.53;28.10;;;-1.60;99.90;;;;;;5053691;28;20500;-45
2022/12/10 01:25:05;;;;;;;62.75;28.77;;;-1.70;99.90;;;;;;5053692;28;20037;-45
2022/12/10 01:27:31;;;;;;;58.40;26.10;;;-1.60;99.90;;;;;;5053209;28;20045;-45
2022/12/10 01:29:56;;;;;;;63.45;28.75;;;-1.60;99.90;;;;;;5053484;28;20080;-45
2022/12/10 01:32:22;;;;;;;63.05;28.58;;;-1.80;99.90;;;;;;5052588;28;20399;-44
2022/12/10 01:34:48;;;;;;;59.70;29.75;;;-1.80;99.90;;;;;;5053194;28;20057;-46
2022/12/10 01:37:13;;;;;;;58.30;28.13;;;-1.70;99.90;;;;;;5053236;28;20053;-45
2022/12/10 01:39:39;;;;;;;62.60;30.23;;;-1.60;99.90;;;;;;5035534;28;20362;-45
2022/12/10 01:42:05;;;;;;;63.75;29.23;;;-1.60;99.90;;;;;;5052906;28;20060;-46
2022/12/10 01:44:30;;;;;;;67.28;30.73;;;-1.80;99.90;;;;;;5053254;28;20037;-44
2022/12/10 01:47:00;;;;;;;60.45;29.52;;;-1.80;99.90;;;;;;5052908;28;20099;-46
2022/12/10 01:49:33;;;;;;;64.40;27.83;;;-1.80;99.90;;;;;;5053256;28;20052;-47
2022/12/10 01:51:59;;;;;;;63.30;29.02;;;-1.80;99.90;;;;;;5052831;28;20523;-45
2022/12/10 01:54:27;;;;;;;62.00;28.88;;;-1.70;99.90;;;;;;5053039;28;20116;-47
2022/12/10 01:57:05;;;;;;;61.97;28.38;;;-1.80;99.90;;;;;;5052676;28;20485;-47
2022/12/10 01:59:33;;;;;;;65.70;30.17;;;-1.80;99.90;;;;;;5052987;28;20095;-44
2022/12/10 02:02:14;;;;;;;59.13;28.13;;;-1.80;99.90;;;;;;5052618;28;20543;-45
2022/12/10 02:05:07;;;;;;;64.40;30.25;;;-1.80;99.90;;;;;;5052920;28;20032;-46
2022/12/10 02:07:54;;;;;;;66.82;29.02;;;-1.80;99.90;;;;;;5021039;28;20088;-45
2022/12/10 02:10:53;;;;;;;62.28;28.00;;;-1.80;99.90;;;;;;5052491;28;20056;-47
2022/12/10 02:13:24;;;;;;;63.53;30.52;;;-1.80;99.90;;;;;;5052326;28;20397;-45
2022/12/10 02:15:54;;;;;;;67.18;30.80;;;-1.90;99.90;;;;;;5034617;28;20044;-44
2022/12/10 02:18:47;;;;;;;65.13;28.63;;;-1.90;99.90;;;;;;5052394;28;20478;-45
2022/12/10 02:21:20;;;;;;;63.05;26.63;;;-1.80;99.90;;;;;;5052335;28;20474;-45
2022/12/10 02:23:51;;;;;;;65.20;31.15;;;-1.90;99.90;;;;;;5052314;28;20053;-44
2022/12/10 02:26:44;;;;;;;63.28;29.75;;;-1.80;99.90;;;;;;5052364;28;20102;-45
2022/12/10 02:29:25;;;;;;;68.60;30.20;;;-1.80;99.90;;;;;;5052815;28;20334;-45
2022/12/10 02:32:05;;;;;;;60.38;27.58;;;-1.70;99.90;;;;;;5052270;28;20045;-44
2022/12/10 02:34:36;;;;;;;67.30;32.13;;;-1.70;99.90;;;;;;5052032;28;20060;-45
2022/12/10 02:37:06;;;;;;;62.95;28.20;;;-1.70;99.90;;;;;;5052179;28;20393;-45
2022/12/10 02:39:37;;;;;;;59.97;26.67;;;-1.80;99.90;;;;;;5052098;28;20037;-44
2022/12/10 02:42:05;;;;;;;62.25;28.48;;;-1.80;99.90;;;;;;5051982;28;20044;-44
2022/12/10 02:44:33;;;;;;;59.50;27.67;;;-1.80;99.90;;;;;;5034368;28;20052;-44
2022/12/10 02:47:00;;;;;;;63.80;28.60;;;-1.80;99.90;;;;;;5052150;28;20037;-46
2022/12/10 02:49:27;;;;;;;62.70;28.63;;;-1.80;99.90;;;;;;5051937;28;20048;-47
2022/12/10 02:51:53;;;;;;;66.13;29.88;;;-1.90;99.90;;;;;;5052096;28;20045;-49
2022/12/10 02:54:41;;;;;;;69.53;30.60;;;-1.90;99.90;;;;;;5051963;28;20043;-47
2022/12/10 02:57:12;;;;;;;64.80;27.27;;;-2.00;99.90;;;;;;5018587;28;20524;-45
2022/12/10 02:59:53;;;;;;;66.43;29.02;;;-1.90;99.90;;;;;;5032214;28;20131;-44
2022/12/10 03:02:38;;;;;;;68.40;30.17;;;-1.90;99.90;;;;;;5032080;28;20421;-45
2022/12/10 03:05:17;;;;;;;63.60;29.13;;;-2.00;99.90;;;;;;5032019;28;20122;-45
2022/12/10 03:08:18;;;;;;;71.05;29.88;;;-1.90;99.90;;;;;;5032120;28;20116;-48
2022/12/10 03:11:08;;;;;;;64.65;31.30;;;-1.80;99.90;;;;;;5031975;28;20050;-45
2022/12/10 03:13:57;;;;;;;67.63;30.25;;;-1.80;99.90;;;;;;5015105;28;20426;-44
2022/12/10 03:16:24;;;;;;;62.30;28.20;;;-1.80;99.90;;;;;;5031733;28;20664;-45
2022/12/10 03:18:55;;;;;;;62.15;28.50;;;-1.60;99.90;;;;;;5031637;28;20444;-45
2022/12/10 03:21:22;;;;;;;68.25;29.80;;;-1.70;99.90;;;;;;5014293;28;20445;-45
2022/12/10 03:23:49;;;;;;;67.20;29.75;;;-1.70;99.90;;;;;;5031909;28;20034;-44
2022/12/10 03:26:17;;;;;;;60.92;28.17;;;-1.70;99.90;;;;;;5031727;28;20042;-44
2022/12/10 03:28:55;;;;;;;66.63;28.92;;;-1.40;99.90;;;;;;5031421;28;20049;-45
2022/12/10 03:31:21;;;;;;;63.28;29.40;;;-1.50;99.90;;;;;;5031784;28;20081;-44
2022/12/10 03:33:48;;;;;;;69.18;30.77;;;-1.50;99.90;;;;;;5031628;28;20453;-45
2022/12/10 03:36:16;;;;;;;67.60;30.08;;;-1.60;99.90;;;;;;5031531;28;20049;-45
2022/12/10 03:38:43;;;;;;;63.08;29.83;;;-1.50;99.90;;;;;;5031406;28;20124;-45
2022/12/10 03:41:08;;;;;;;67.28;30.98;;;-1.30;99.90;;;;;;5031959;28;20042;-45
2022/12/10 03:43:34;;;;;;;72.50;32.60;;;-1.30;99.90;;;;;;5031450;28;20049;-46
2022/12/10 03:46:00;;;;;;;64.63;30.60;;;-1.40;99.90;;;;;;5031915;28;20041;-45
2022/12/10 03:48:26;;;;;;;65.72;30.75;;;-1.30;99.90;;;;;;5031465;28;20512;-45
2022/12/10 03:50:52;;;;;;;63.05;29.20;;;-1.10;99.90;;;;;;5031877;28;20048;-45
2022/12/10 03:53:17;;;;;;;66.75;30.33;;;-1.20;99.90;;;;;;5031292;28;20211;-45
2022/12/10 03:55:43;;;;;;;64.93;30.30;;;-1.30;99.90;;;;;;5038058;28;20112;-45
2022/12/10 03:58:08;;;;;;;62.70;30.30;;;-1.20;99.90;;;;;;5054823;28;20080;-45
2022/12/10 04:00:34;;;;;;;68.30;31.30;;;-1.20;99.90;;;;;;5055146;28;20069;-45
2022/12/10 04:03:00;;;;;;;67.20;29.42;;;-1.20;99.90;;;;;;5055137;28;20033;-44
2022/12/10 04:05:25;;;;;;;66.93;31.45;;;-1.10;99.90;;;;;;5054832;28;20494;-45
2022/12/10 04:07:51;;;;;;;73.72;31.17;;;-1.30;99.90;;;;;;5054819;28;20090;-44
2022/12/10 04:10:17;;;;;;;72.20;31.65;;;-1.30;99.90;;;;;;5054700;28;20072;-43
2022/12/10 04:12:42;;;;;;;70.97;31.60;;;-1.20;99.90;;;;;;5054780;28;20055;-44
2022/12/10 04:17:52;;;;;;;72.18;32.55;;;-1.10;99.90;;;;;;5054741;28;20051;-44
2022/12/10 04:28:31;;;;;;;72.82;32.72;;;-1.10;99.90;;;;;;5054784;28;20041;-45
2022/12/10 04:30:56;;;;;;;79.32;32.97;;;-1.30;99.90;;;;;;5036151;28;20075;-45
2022/12/10 04:33:22;;;;;;;80.97;36.35;;;-1.30;99.90;;;;;;5054600;28;20037;-48
2022/12/10 04:35:48;;;;;;;79.43;34.42;;;-1.10;99.90;;;;;;5054080;28;20409;-45
2022/12/10 04:38:13;;;;;;;85.68;35.92;;;-1.20;99.90;;;;;;5054202;28;20052;-44
2022/12/10 04:40:39;;;;;;;87.57;35.75;;;-1.30;99.90;;;;;;5054102;28;20080;-47
2022/12/10 04:43:05;;;;;;;83.13;35.70;;;-1.30;99.90;;;;;;5054349;28;20041;-45
2022/12/10 04:45:33;;;;;;;87.28;34.67;;;-1.00;99.90;;;;;;5036292;28;20151;-47
2022/12/10 04:47:58;;;;;;;90.32;33.88;;;-1.20;99.90;;;;;;5054227;28;20079;-44
2022/12/10 04:50:24;;;;;;;91.63;35.88;;;-1.30;99.90;;;;;;5054426;28;20519;-47
2022/12/10 04:52:49;;;;;;;81.63;35.45;;;-1.00;99.90;;;;;;5054142;28;20117;-45
2022/12/10 04:55:17;;;;;;;95.95;34.47;;;-1.00;99.90;;;;;;5054270;28;20041;-47
2022/12/10 04:57:42;;;;;;;93.35;34.00;;;-1.30;99.90;;;;;;5045806;28;20103;-44
2022/12/10 05:00:08;;;;;;;82.10;35.45;;;-1.00;99.90;;;;;;5053590;28;20366;-44
2022/12/10 05:02:39;;;;;;;91.82;32.13;;;-1.30;99.90;;;;;;5053519;28;20485;-45
2022/12/10 05:05:05;;;;;;;80.20;31.00;;;-1.00;99.90;;;;;;5053819;28;20029;-45
2022/12/10 05:07:32;;;;;;;88.38;33.10;;;-1.10;99.90;;;;;;5052564;28;20033;-47
2022/12/10 05:09:58;;;;;;;91.95;32.13;;;-1.40;99.90;;;;;;5053687;28;20076;-45
2022/12/10 05:12:24;;;;;;;91.57;33.20;;;-1.00;99.90;;;;;;5053595;28;20130;-45
2022/12/10 05:14:49;;;;;;;113.32;36.03;;;-1.10;99.90;;;;;;5035612;28;20036;-49
2022/12/10 05:17:15;;;;;;;110.30;34.38;;;-1.10;99.90;;;;;;5053772;28;20455;-44
2022/12/10 05:19:40;;;;;;;128.65;34.35;;;-1.40;99.90;;;;;;5053526;28;20402;-47
2022/12/10 05:24:51;;;;;;;127.60;32.40;;;-1.50;99.90;;;;;;5053297;28;20056;-46
2022/12/10 05:27:17;;;;;;;88.65;31.17;;;-1.50;99.90;;;;;;5053496;28;20671;-44
2022/12/10 05:29:42;;;;;;;107.95;33.25;;;-1.40;99.90;;;;;;5053599;28;20045;-45
2022/12/10 05:32:08;;;;;;;105.38;31.95;;;-1.20;99.90;;;;;;5053210;28;20452;-45
2022/12/10 05:34:34;;;;;;;112.75;32.42;;;-1.20;99.90;;;;;;5052927;28;20087;-44
2022/12/10 05:36:59;;;;;;;96.43;34.13;;;-1.00;99.90;;;;;;5053188;28;20132;-45
2022/12/10 05:39:25;;;;;;;99.57;33.53;;;-1.30;99.90;;;;;;5035480;28;20413;-44
2022/12/10 05:41:51;;;;;;;92.97;34.45;;;-1.00;99.90;;;;;;5052858;28;20037;-44
2022/12/10 05:44:16;;;;;;;119.15;35.95;;;-1.00;99.90;;;;;;5053055;28;20044;-45
2022/12/10 05:46:42;;;;;;;105.97;32.78;;;-1.40;99.90;;;;;;5035088;28;20041;-44
2022/12/10 05:49:08;;;;;;;166.98;34.70;;;-1.00;99.90;;;;;;5035307;28;20036;-45
2022/12/10 05:51:36;;;;;;;108.18;33.53;;;-1.10;99.90;;;;;;5052948;28;20119;-44
2022/12/10 05:54:03;;;;;;;102.93;30.90;;;-1.10;99.90;;;;;;5052947;28;20102;-44
2022/12/10 05:56:29;;;;;;;77.70;31.25;;;-1.00;99.90;;;;;;5024921;28;20179;-45
2022/12/10 05:58:58;;;;;;;88.30;29.83;;;-1.00;99.90;;;;;;5015124;28;20570;-46
2022/12/10 06:01:26;;;;;;;112.55;31.38;;;-1.20;99.90;;;;;;5032709;28;20120;-44
2022/12/10 06:03:52;;;;;;;118.72;29.95;;;-1.00;99.90;;;;;;5032729;28;20041;-44
2022/12/10 06:06:22;;;;;;;117.53;31.42;;;-1.40;99.90;;;;;;5032581;28;20049;-49
2022/12/10 06:08:49;;;;;;;100.97;28.92;;;-1.40;99.90;;;;;;5032860;28;20045;-45
2022/12/10 06:11:14;;;;;;;93.45;30.52;;;-1.10;99.90;;;;;;5032751;28;20068;-47
2022/12/10 06:13:40;;;;;;;103.03;29.10;;;-1.40;99.90;;;;;;5014981;28;20579;-45
2022/12/10 06:16:08;;;;;;;102.68;28.98;;;-1.30;99.90;;;;;;5032556;28;20045;-46
2022/12/10 06:18:35;;;;;;;91.90;27.65;;;-1.00;99.90;;;;;;5032465;28;20420;-45
2022/12/10 06:21:05;;;;;;;83.72;28.65;;;-1.20;99.90;;;;;;5032496;28;20057;-45
2022/12/10 06:23:30;;;;;;;96.70;29.25;;;-1.30;99.90;;;;;;5014772;28;20041;-44
2022/12/10 06:25:56;;;;;;;93.80;29.30;;;-0.90;99.90;;;;;;5032372;28;20052;-44
2022/12/10 06:28:22;;;;;;;74.82;26.95;;;-1.00;99.90;;;;;;5032028;28;20048;-48
2022/12/10 06:30:47;;;;;;;76.45;27.30;;;-1.10;99.90;;;;;;5032219;28;20077;-44
2022/12/10 06:33:13;;;;;;;77.93;27.88;;;-1.10;99.90;;;;;;5032183;28;20072;-44
2022/12/10 06:35:39;;;;;;;80.97;24.55;;;-0.90;99.90;;;;;;5031971;28;20045;-45
2022/12/10 06:38:04;;;;;;;74.30;26.45;;;-0.90;99.90;;;;;;5032154;28;20042;-44
2022/12/10 06:40:30;;;;;;;68.10;26.98;;;-1.30;99.90;;;;;;5031958;28;20552;-44
2022/12/10 06:42:55;;;;;;;69.18;26.13;;;-1.10;99.90;;;;;;5032068;28;20037;-44
2022/12/10 06:45:21;;;;;;;89.55;27.60;;;-1.00;99.90;;;;;;5014620;28;20037;-44
2022/12/10 06:47:47;;;;;;;78.40;27.35;;;-1.40;99.90;;;;;;5031987;28;20037;-44
2022/12/10 06:50:12;;;;;;;70.05;24.75;;;-1.40;99.90;;;;;;5014501;28;20045;-45
2022/12/10 06:52:38;;;;;;;75.45;25.75;;;-0.90;99.90;;;;;;5032059;28;20041;-44
2022/12/10 06:55:04;;;;;;;84.72;26.35;;;-1.30;99.90;;;;;;5014321;28;20049;-45
2022/12/10 06:57:30;;;;;;;74.15;24.48;;;-0.90;99.90;;;;;;5050377;28;20036;-43
2022/12/10 06:59:55;;;;;;;64.65;24.70;;;-0.90;99.90;;;;;;5034032;28;20095;-44
2022/12/10 07:02:21;;;;;;;67.00;23.63;;;-0.90;99.90;;;;;;5034208;28;20128;-44
2022/12/10 07:04:47;;;;;;;86.10;28.25;;;-0.80;99.90;;;;;;5034044;28;20040;-44
2022/12/10 07:07:12;;;;;;;69.18;26.23;;;-1.10;99.90;;;;;;5051666;28;20045;-44
2022/12/10 07:09:38;;;;;;;86.95;27.05;;;-1.30;99.90;;;;;;5051628;28;20049;-45
2022/12/10 07:12:04;;;;;;;78.22;27.15;;;-1.40;99.90;;;;;;5051756;28;20378;-44
2022/12/10 07:14:30;;;;;;;70.35;25.92;;;-1.30;99.90;;;;;;5034094;28;20412;-45
2022/12/10 07:16:56;;;;;;;78.55;25.35;;;-1.30;99.90;;;;;;5051686;28;20041;-44
2022/12/10 07:19:22;;;;;;;87.32;26.83;;;-0.90;99.90;;;;;;5051534;28;20474;-44
2022/12/10 07:21:48;;;;;;;71.75;27.58;;;-1.30;99.90;;;;;;5051208;28;20045;-45
2022/12/10 07:24:16;;;;;;;69.32;26.60;;;-1.30;99.90;;;;;;5051837;28;20071;-45
2022/12/10 07:26:43;;;;;;;83.10;27.95;;;-0.90;99.90;;;;;;5050613;28;20120;-44
2022/12/10 07:29:15;;;;;;;84.50;27.52;;;-1.00;99.90;;;;;;5050915;28;20040;-47
2022/12/10 07:31:41;;;;;;;67.80;26.50;;;-0.90;99.90;;;;;;5055072;28;20045;-45
2022/12/10 07:34:07;;;;;;;105.60;30.70;;;-1.30;99.90;;;;;;5054611;28;20040;-47
2022/12/10 07:36:33;;;;;;;80.25;26.98;;;-1.00;99.90;;;;;;5054271;28;20489;-46
2022/12/10 07:38:58;;;;;;;63.83;26.17;;;-1.30;99.90;;;;;;5054827;28;20045;-47
2022/12/10 07:41:25;;;;;;;71.72;26.08;;;-1.20;99.90;;;;;;5054408;28;20037;-46
2022/12/10 07:43:51;;;;;;;82.45;27.00;;;-1.00;99.90;;;;;;5054707;28;20037;-45
2022/12/10 07:46:21;;;;;;;66.82;25.50;;;-1.10;99.90;;;;;;5036649;28;20045;-46
2022/12/10 07:48:48;;;;;;;74.97;25.98;;;-1.20;99.90;;;;;;5037574;28;20081;-45
2022/12/10 07:51:15;;;;;;;82.15;28.48;;;-1.20;99.90;;;;;;5034641;28;20041;-46
2022/12/10 07:53:42;;;;;;;80.97;26.15;;;-0.90;99.90;;;;;;5034698;28;20046;-46
2022/12/10 07:56:07;;;;;;;82.10;25.15;;;-1.00;99.90;;;;;;5041501;28;20112;-45
2022/12/10 07:58:34;;;;;;;68.53;25.77;;;-1.30;99.90;;;;;;5054021;28;20120;-45
2022/12/10 08:01:09;;;;;;;79.32;24.58;;;-1.00;99.90;;;;;;5054400;28;20037;-45
2022/12/10 08:03:35;;;;;;;67.20;25.48;;;-1.00;99.90;;;;;;5054493;28;20037;-47
2022/12/10 08:06:06;;;;;;;76.63;26.65;;;-1.30;99.90;;;;;;5054263;28;20163;-45
2022/12/10 08:08:36;;;;;;;69.38;24.67;;;-0.90;99.90;;;;;;5054082;28;20044;-45
2022/12/10 08:11:03;;;;;;;73.95;26.77;;;-0.90;99.90;;;;;;5036137;28;20562;-46
2022/12/10 08:13:29;;;;;;;76.18;24.80;;;-1.40;99.90;;;;;;5053979;28;20075;-45
2022/12/10 08:16:00;;;;;;;78.35;25.40;;;-1.20;99.90;;;;;;5036160;28;20087;-45
2022/12/10 08:18:26;;;;;;;78.70;25.17;;;-1.30;99.90;;;;;;5053435;28;20505;-47
2022/12/10 08:20:52;;;;;;;81.97;23.95;;;-1.10;99.90;;;;;;5053714;28;20055;-44
2022/12/10 08:23:17;;;;;;;67.45;25.17;;;-1.10;99.90;;;;;;5053761;28;20040;-44
2022/12/10 08:25:43;;;;;;;65.75;24.45;;;-1.20;99.90;;;;;;5053973;28;20045;-45
2022/12/10 08:28:09;;;;;;;64.93;22.13;;;-1.00;99.90;;;;;;5053892;28;20029;-44
2022/12/10 08:30:35;;;;;;;67.05;22.30;;;-1.10;99.90;;;;;;5053687;28;20087;-46
2022/12/10 08:33:00;;;;;;;59.58;23.48;;;-1.00;99.90;;;;;;5053785;28;20043;-45
2022/12/10 08:35:26;;;;;;;73.43;23.95;;;-1.00;99.90;;;;;;5053541;28;20721;-45
2022/12/10 08:37:51;;;;;;;66.45;24.00;;;-1.00;99.90;;;;;;5035840;28;20045;-45
2022/12/10 08:40:17;;;;;;;75.28;24.63;;;-1.10;99.90;;;;;;5053207;28;20132;-45
2022/12/10 08:42:43;;;;;;;87.68;23.08;;;-1.10;99.90;;;;;;5053234;28;20084;-45
2022/12/10 08:45:09;;;;;;;69.82;23.48;;;-1.40;99.90;;;;;;5035810;28;20127;-45
2022/12/10 08:47:34;;;;;;;83.70;24.38;;;-1.00;99.90;;;;;;5053525;28;20541;-52
2022/12/10 08:50:00;;;;;;;60.47;25.00;;;-1.00;99.90;;;;;;5053545;28;20076;-53
2022/12/10 08:52:28;;;;;;;65.90;22.30;;;-0.90;99.90;;;;;;5053287;28;20043;-54
2022/12/10 08:54:54;;;;;;;57.22;21.30;;;-0.90;99.90;;;;;;5053136;28;21081;-51
2022/12/10 08:57:20;;;;;;;60.83;21.90;;;-1.20;99.90;;;;;;5053338;28;20072;-52
2022/12/10 08:59:45;;;;;;;63.10;22.80;;;-0.80;99.90;;;;;;5053225;28;20048;-52
2022/12/10 09:02:11;;;;;;;64.97;23.20;;;-0.80;99.90;;;;;;5053167;28;20492;-54
2022/12/10 09:04:38;;;;;;;86.32;22.40;;;-1.10;99.90;;;;;;5053108;28;20045;-54
2022/12/10 09:07:04;;;;;;;76.25;23.42;;;-0.70;99.90;;;;;;5053342;28;20047;-50
2022/12/10 09:09:31;;;;;;;80.53;24.88;;;-0.70;99.90;;;;;;5050742;28;20080;-51
2022/12/10 09:11:57;;;;;;;64.15;21.27;;;-0.80;99.90;;;;;;5043653;28;20135;-52
2022/12/10 09:14:23;;;;;;;54.25;21.92;;;-0.60;99.90;;;;;;5053129;28;20120;-53
2022/12/10 09:16:49;;;;;;;42.95;19.10;;;-0.70;99.90;;;;;;5053032;28;20133;-52
2022/12/10 09:19:15;;;;;;;55.60;20.70;;;-0.80;99.90;;;;;;5052677;28;20602;-50
2022/12/10 09:21:41;;;;;;;53.00;18.85;;;-0.50;99.90;;;;;;5035025;28;20115;-54
2022/12/10 09:24:07;;;;;;;46.80;19.05;;;-0.80;99.90;;;;;;5052695;28;20129;-54
2022/12/10 09:26:33;;;;;;;102.85;20.13;;;-0.70;99.90;;;;;;5034589;28;20044;-52
2022/12/10 09:28:59;;;;;;;49.60;17.67;;;-0.70;99.90;;;;;;5052243;28;20072;-54
2022/12/10 09:31:25;;;;;;;65.38;18.52;;;-0.70;99.90;;;;;;5027400;28;20108;-52
2022/12/10 09:33:52;;;;;;;50.60;17.50;;;-0.90;99.90;;;;;;5042204;28;20116;-55
2022/12/10 09:36:20;;;;;;;67.90;20.38;;;-0.80;99.90;;;;;;5039450;28;20111;-54
2022/12/10 09:38:46;;;;;;;45.85;19.95;;;-1.10;99.90;;;;;;5022707;28;20076;-55
2022/12/10 09:41:49;;;;;;;86.22;20.67;;;-0.90;99.90;;;;;;5041083;28;20045;-52
2022/12/10 09:44:21;;;;;;;52.55;18.27;;;-1.00;99.90;;;;;;5022104;28;20080;-54
2022/12/10 09:46:58;;;;;;;38.83;17.43;;;-0.80;99.90;;;;;;5050709;28;20122;-53
2022/12/10 09:49:33;;;;;;;43.40;17.65;;;-0.60;99.90;;;;;;5033418;28;20558;-51
2022/12/10 09:52:05;;;;;;;53.00;18.27;;;-0.60;99.90;;;;;;5048488;28;20049;-55
2022/12/10 09:54:40;;;;;;;52.50;18.35;;;-0.70;99.90;;;;;;5051775;28;20068;-52
2022/12/10 09:57:16;;;;;;;51.88;19.60;;;-1.00;99.90;;;;;;5051948;28;20044;-52
2022/12/10 09:59:46;;;;;;;58.38;21.05;;;-0.70;99.90;;;;;;5033936;28;20107;-55
2022/12/10 10:02:21;;;;;;;47.90;18.73;;;-0.60;99.90;;;;;;5051877;28;20993;-55
2022/12/10 10:04:49;;;;;;;52.97;20.17;;;-0.70;99.90;;;;;;5033926;28;20045;-53
2022/12/10 10:07:25;;;;;;;51.63;19.30;;;-1.00;99.90;;;;;;5051979;28;20385;-53
2022/12/10 10:09:56;;;;;;;58.65;20.48;;;-0.90;99.90;;;;;;5052021;28;20048;-50
2022/12/10 10:12:21;;;;;;;52.72;19.55;;;-1.00;99.90;;;;;;5051617;28;20052;-54
2022/12/10 10:14:47;;;;;;;66.57;19.65;;;-0.90;99.90;;;;;;5051924;28;20041;-54
2022/12/10 10:17:21;;;;;;;64.10;20.42;;;-0.70;99.90;;;;;;5051970;28;20049;-53
2022/12/10 10:19:49;;;;;;;57.20;19.80;;;-0.60;99.90;;;;;;5051416;28;20056;-51
2022/12/10 10:22:15;;;;;;;56.45;19.60;;;-0.90;99.90;;;;;;5034110;28;20119;-52
2022/12/10 10:24:45;;;;;;;59.45;20.23;;;-0.40;99.90;;;;;;5033716;28;20044;-54
2022/12/10 10:27:15;;;;;;;58.28;20.45;;;-0.80;99.90;;;;;;5051475;28;20102;-51
2022/12/10 10:29:45;;;;;;;49.97;20.23;;;-0.70;99.90;;;;;;5051446;28;20041;-54
2022/12/10 10:32:15;;;;;;;55.72;19.30;;;-0.60;99.90;;;;;;5051465;28;20390;-54
2022/12/10 10:34:42;;;;;;;43.85;18.88;;;-0.50;99.90;;;;;;5051384;28;20040;-52
2022/12/10 10:37:25;;;;;;;41.00;16.83;;;-0.40;99.90;;;;;;5026536;28;20503;-52
2022/12/10 10:39:51;;;;;;;39.75;17.83;;;-0.60;99.90;;;;;;5031247;28;20466;-51
2022/12/10 10:42:39;;;;;;;40.38;16.55;;;-0.30;99.90;;;;;;5044238;28;20508;-55
2022/12/10 10:45:26;;;;;;;43.63;16.38;;;-0.20;99.90;;;;;;5052060;28;20076;-51
2022/12/10 10:48:09;;;;;;;41.95;16.58;;;-0.40;99.90;;;;;;5051920;28;20040;-51
2022/12/10 10:50:41;;;;;;;41.10;16.75;;;-0.20;99.90;;;;;;5052247;28;20447;-51
2022/12/10 10:53:31;;;;;;;37.92;16.05;;;-0.50;99.90;;;;;;5051768;28;20045;-50
2022/12/10 10:56:05;;;;;;;39.50;16.45;;;-0.10;99.90;;;;;;5046129;28;20061;-51
2022/12/10 10:58:31;;;;;;;54.63;19.58;;;-0.40;99.90;;;;;;5031896;28;20147;-51
2022/12/10 11:01:03;;;;;;;46.45;18.98;;;-0.20;99.90;;;;;;5031950;28;20506;-51
2022/12/10 11:03:30;;;;;;;44.80;18.73;;;-0.20;99.90;;;;;;5014991;28;20049;-50
2022/12/10 11:05:58;;;;;;;40.22;17.98;;;-0.10;99.90;;;;;;5035992;28;20092;-53
2022/12/10 11:08:27;;;;;;;43.40;17.92;;;-0.20;99.90;;;;;;5018308;28;20038;-52
2022/12/10 11:11:03;;;;;;;46.97;19.27;;;-0.20;99.90;;;;;;5035891;28;20033;-52
2022/12/10 11:13:35;;;;;;;44.83;18.80;;;-0.20;99.90;;;;;;5035735;28;20072;-51
2022/12/10 11:16:18;;;;;;;45.80;19.05;;;-0.10;99.90;;;;;;5036099;28;20367;-52
2022/12/10 11:19:02;;;;;;;54.15;20.67;;;-0.40;99.90;;;;;;5035800;28;20406;-53
2022/12/10 11:21:33;;;;;;;52.65;18.98;;;-0.20;99.90;;;;;;5035900;28;20042;-51
2022/12/10 11:24:00;;;;;;;51.20;17.85;;;-0.10;99.90;;;;;;5035957;28;20033;-44
2022/12/10 11:26:50;;;;;;;46.45;17.23;;;-0.50;99.90;;;;;;5035659;28;20573;-46
2022/12/10 11:29:34;;;;;;;55.45;19.35;;;-0.30;99.90;;;;;;5035523;28;20088;-45
2022/12/10 11:32:24;;;;;;;46.03;16.92;;;-0.20;99.90;;;;;;5035351;28;20044;-46
2022/12/10 11:34:58;;;;;;;42.15;17.15;;;-0.20;99.90;;;;;;5035149;28;20045;-44
2022/12/10 11:37:54;;;;;;;43.35;17.83;;;-0.40;99.90;;;;;;5035579;28;20433;-46
2022/12/10 11:40:32;;;;;;;46.20;17.27;;;-0.10;99.90;;;;;;5034655;28;20053;-45
2022/12/10 11:43:25;;;;;;;49.97;18.50;;;-0.50;99.90;;;;;;5018040;28;20067;-45
2022/12/10 11:46:24;;;;;;;46.50;18.30;;;-0.30;99.90;;;;;;5017477;28;20041;-45
2022/12/10 11:48:56;;;;;;;42.13;16.00;;;-0.40;99.90;;;;;;5035238;28;20111;-45
2022/12/10 11:52:04;;;;;;;53.33;19.48;;;-0.30;99.90;;;;;;5017795;28;20092;-46
2022/12/10 11:54:43;;;;;;;54.80;20.95;;;-0.40;99.90;;;;;;5035116;28;20383;-46
2022/12/10 11:57:21;;;;;;;55.20;20.77;;;-0.30;99.90;;;;;;5050759;28;20063;-46
2022/12/10 12:00:04;;;;;;;53.92;21.50;;;-0.40;99.90;;;;;;5055102;28;20044;-47
2022/12/10 12:02:41;;;;;;;68.13;25.13;;;-0.10;99.90;;;;;;5037354;28;20120;-44
2022/12/10 12:05:44;;;;;;;80.80;24.27;;;-0.30;99.90;;;;;;5054875;28;20405;-47
2022/12/10 12:08:24;;;;;;;61.40;22.58;;;0.00;99.90;;;;;;5055171;28;20040;-46
2022/12/10 12:11:21;;;;;;;56.00;20.88;;;0.00;99.90;;;;;;5054716;28;20045;-47
2022/12/10 12:13:59;;;;;;;63.30;24.50;;;-0.30;99.90;;;;;;5043933;28;20097;-47
2022/12/10 12:16:51;;;;;;;65.25;24.25;;;-0.20;99.90;;;;;;5054240;28;20041;-46
2022/12/10 12:19:23;;;;;;;61.22;24.90;;;0.00;99.90;;;;;;5050590;28;20060;-45
2022/12/10 12:21:50;;;;;;;100.03;34.22;;;-0.10;99.90;;;;;;5054524;28;20037;-46
2022/12/10 12:24:29;;;;;;;57.42;20.65;;;0.60;99.90;;;;;;5054544;28;20061;-45
2022/12/10 12:27:06;;;;;;;49.40;20.98;;;0.20;99.90;;;;;;5054664;28;20032;-44
2022/12/10 12:29:44;;;;;;;52.30;19.08;;;0.40;99.90;;;;;;5046490;28;20051;-44
2022/12/10 12:32:29;;;;;;;49.05;18.65;;;-0.20;99.90;;;;;;5041645;28;20045;-47
2022/12/10 12:35:04;;;;;;;45.17;16.73;;;0.10;99.90;;;;;;5038302;28;20073;-45
2022/12/10 12:37:44;;;;;;;46.63;16.60;;;0.20;99.90;;;;;;5034377;28;20080;-45
2022/12/10 12:40:33;;;;;;;46.08;17.13;;;-0.30;99.90;;;;;;5016551;28;20045;-45
2022/12/10 12:43:02;;;;;;;45.10;18.65;;;0.10;99.90;;;;;;5034611;28;20041;-45
2022/12/10 12:45:31;;;;;;;39.45;16.50;;;0.20;99.90;;;;;;5034226;28;20052;-45
2022/12/10 12:48:24;;;;;;;50.10;18.10;;;0.00;99.90;;;;;;5034391;28;20049;-48
2022/12/10 12:51:14;;;;;;;47.55;17.63;;;0.00;99.90;;;;;;5034064;28;20045;-45
2022/12/10 12:53:40;;;;;;;52.88;17.85;;;-0.20;99.90;;;;;;5034290;28;20397;-46
2022/12/10 12:56:25;;;;;;;55.08;18.80;;;-0.30;99.90;;;;;;5040228;28;20033;-45